Time;durP1;ratioP1;P1;durP2;ratioP2;P2;SDS_P1;SDS_P2;PMS_P1;PMS_P2;Temp;Humidity;BMP_temperature;BMP_pressure;BME280_temperature;BME280_humidity;BME280_pressure;Samples;Min_cycle;Max_cycle;Signal;HPM_P1;HPM_P2
2024/02/16 00:00:34;;;;;;;1.92;1.13;;;;;;;12.44;59.97;100790.47;10364298;28;20026;-60
2024/02/16 00:05:35;;;;;;;2.77;1.10;;;;;;;12.43;59.90;100789.69;10363965;28;20103;-60
2024/02/16 00:10:36;;;;;;;1.60;1.08;;;;;;;12.44;59.16;100790.47;10389329;28;20304;-58
2024/02/16 00:15:38;;;;;;;1.80;0.95;;;;;;;12.43;59.43;100781.69;10363593;28;20405;-60
2024/02/16 00:20:38;;;;;;;2.40;1.20;;;;;;;12.43;60.11;100775.56;10362676;28;20277;-58
2024/02/16 00:25:40;;;;;;;2.10;1.20;;;;;;;12.43;59.93;100767.56;10367822;28;20022;-60
2024/02/16 00:30:41;;;;;;;1.88;1.23;;;;;;;12.42;58.98;100764.13;10372010;28;20748;-60
2024/02/16 00:35:41;;;;;;;2.33;1.30;;;;;;;12.43;59.93;100767.56;10369509;28;20030;-59
2024/02/16 00:40:43;;;;;;;2.25;1.00;;;;;;;12.42;58.80;100760.66;10371378;28;20071;-61
2024/02/16 00:45:44;;;;;;;1.25;0.98;;;;;;;12.42;59.66;100758.81;10370219;28;20037;-59
2024/02/16 00:50:45;;;;;;;1.75;1.00;;;;;;;12.42;59.94;100750.81;10370277;28;20032;-60
2024/02/16 00:55:46;;;;;;;1.73;1.27;;;;;;;12.42;59.39;100747.38;10369878;28;20022;-60
2024/02/16 01:00:46;;;;;;;1.70;1.05;;;;;;;12.42;59.09;100756.13;10368559;28;20038;-59
2024/02/16 01:05:46;;;;;;;1.58;1.00;;;;;;;12.42;60.13;100752.69;10368379;28;20046;-59
2024/02/16 01:10:47;;;;;;;1.67;0.97;;;;;;;12.42;59.16;100744.69;10382413;28;20060;-60
2024/02/16 01:15:47;;;;;;;2.80;1.30;;;;;;;12.41;59.08;100741.25;10368735;28;20666;-61
2024/02/16 01:20:47;;;;;;;2.55;1.50;;;;;;;12.41;60.02;100735.94;10369482;28;20141;-60
2024/02/16 01:25:48;;;;;;;1.48;0.95;;;;;;;12.41;59.95;100727.16;10368275;28;20036;-60
2024/02/16 01:30:49;;;;;;;1.80;1.00;;;;;;;12.40;59.77;100730.88;10370615;28;20018;-60
2024/02/16 01:35:50;;;;;;;2.47;1.08;;;;;;;12.41;59.10;100729.81;10368771;28;20366;-60
2024/02/16 01:40:50;;;;;;;2.50;1.40;;;;;;;12.40;59.75;100721.03;10368393;28;20033;-60
2024/02/16 01:45:50;;;;;;;2.45;1.63;;;;;;;12.41;59.65;100724.50;10368185;28;20036;-60
2024/02/16 01:50:52;;;;;;;2.95;1.38;;;;;;;12.40;60.19;100720.22;10379659;28;20105;-59
2024/02/16 01:55:52;;;;;;;3.67;1.60;;;;;;;12.40;59.86;100715.72;10404995;28;20052;-60
2024/02/16 02:00:52;;;;;;;2.38;1.35;;;;;;;12.40;59.36;100715.72;10406988;28;20096;-60
2024/02/16 02:05:55;;;;;;;2.03;0.93;;;;;;;12.40;60.15;100717.56;10406842;28;20013;-59
2024/02/16 02:10:55;;;;;;;2.53;1.50;;;;;;;12.40;59.71;100713.06;10390556;28;20335;-60
2024/02/16 02:15:56;;;;;;;2.00;1.10;;;;;;;12.40;59.83;100712.25;10366856;28;20037;-60
2024/02/16 02:20:56;;;;;;;2.25;1.08;;;;;;;12.39;59.39;100711.44;10356731;28;20629;-59
2024/02/16 02:25:56;;;;;;;1.97;1.30;;;;;;;12.40;59.30;100704.28;10367045;28;20128;-60
2024/02/16 02:30:57;;;;;;;1.63;1.25;;;;;;;12.39;59.73;100697.34;10366101;28;20271;-58
2024/02/16 02:35:58;;;;;;;2.63;1.35;;;;;;;12.39;60.44;100695.50;10366202;28;20088;-60
2024/02/16 02:40:58;;;;;;;2.70;1.33;;;;;;;12.39;59.92;100697.34;10365963;28;20087;-60
2024/02/16 02:45:58;;;;;;;1.40;0.80;;;;;;;12.38;59.35;100688.56;10365516;28;20268;-60
2024/02/16 02:50:59;;;;;;;1.50;1.03;;;;;;;12.38;59.31;100688.56;10365934;28;20327;-60
2024/02/16 02:56:00;;;;;;;2.45;1.00;;;;;;;12.38;58.94;100677.16;10365437;28;20791;-60
2024/02/16 03:01:00;;;;;;;2.23;1.47;;;;;;;12.37;60.01;100679.00;10365295;28;20029;-59
2024/02/16 03:06:00;;;;;;;1.50;0.90;;;;;;;12.38;59.91;100661.19;10379698;28;20619;-59
2024/02/16 03:11:01;;;;;;;2.77;1.33;;;;;;;12.37;59.45;100665.72;10386983;28;20104;-59
2024/02/16 03:16:01;;;;;;;1.60;1.00;;;;;;;12.38;59.57;100658.53;10365413;28;20349;-60
2024/02/16 03:21:02;;;;;;;1.80;1.25;;;;;;;12.39;59.21;100665.44;10364774;28;20025;-60
2024/02/16 03:26:02;;;;;;;2.33;1.55;;;;;;;12.37;59.41;100656.94;10363560;28;20028;-60
2024/02/16 03:31:04;;;;;;;1.50;0.98;;;;;;;12.37;59.99;100656.94;10366180;28;20462;-59
2024/02/16 03:36:05;;;;;;;2.83;1.45;;;;;;;12.36;59.95;100656.13;10364530;28;20033;-58
2024/02/16 03:41:06;;;;;;;3.40;1.50;;;;;;;12.37;60.27;100649.75;10364495;28;20045;-60
2024/02/16 03:46:06;;;;;;;1.83;1.20;;;;;;;12.37;59.03;100652.41;10363205;28;20030;-60
2024/02/16 03:51:07;;;;;;;1.52;1.00;;;;;;;12.36;58.99;100658.78;10364101;28;20018;-60
2024/02/16 03:56:07;;;;;;;1.70;1.20;;;;;;;12.36;59.50;100656.13;10362903;28;20029;-60
2024/02/16 04:01:07;;;;;;;2.28;0.93;;;;;;;12.35;60.17;100665.16;10371269;28;20129;-60
2024/02/16 04:06:08;;;;;;;2.60;1.13;;;;;;;12.34;59.39;100655.59;10372164;28;20437;-59
2024/02/16 04:11:11;;;;;;;2.28;1.45;;;;;;;12.35;60.26;100667.03;10384549;28;20296;-59
2024/02/16 04:16:12;;;;;;;2.03;1.13;;;;;;;12.35;60.17;100656.38;10371510;28;20026;-60
2024/02/16 04:21:12;;;;;;;2.28;1.55;;;;;;;12.35;58.81;100659.03;10369684;28;20025;-60
2024/02/16 04:26:12;;;;;;;2.63;1.50;;;;;;;12.34;59.68;100654.78;10371397;28;20018;-60
2024/02/16 04:31:13;;;;;;;2.10;1.30;;;;;;;12.34;60.18;100670.75;10392237;28;20276;-60
2024/02/16 04:36:15;;;;;;;1.97;1.10;;;;;;;12.35;59.04;100667.81;10374962;28;20288;-60
2024/02/16 04:41:15;;;;;;;1.85;1.17;;;;;;;12.34;59.24;100668.09;10369254;28;20370;-60
2024/02/16 04:46:16;;;;;;;3.25;1.45;;;;;;;12.33;59.21;100671.81;10371027;28;20125;-60
2024/02/16 04:51:16;;;;;;;1.95;0.90;;;;;;;12.33;59.59;100672.59;10397547;28;20041;-60
2024/02/16 04:56:16;;;;;;;2.53;1.70;;;;;;;12.34;59.06;100668.09;10411337;28;20487;-60
2024/02/16 05:01:17;;;;;;;3.50;1.70;;;;;;;12.33;59.77;100674.47;10410831;28;20287;-59
2024/02/16 05:06:17;;;;;;;1.83;1.17;;;;;;;12.33;59.33;100661.97;10390516;28;20022;-59
2024/02/16 05:11:18;;;;;;;2.85;1.60;;;;;;;12.32;59.74;100673.66;10380486;28;20054;-59
2024/02/16 05:16:18;;;;;;;1.65;1.20;;;;;;;12.32;59.09;100660.38;10368774;28;20453;-60
2024/02/16 05:21:19;;;;;;;1.75;1.30;;;;;;;12.32;59.41;100668.34;10369362;28;20636;-60
2024/02/16 05:26:20;;;;;;;2.13;1.23;;;;;;;12.32;59.99;100663.03;10367551;28;20022;-60
2024/02/16 05:31:20;;;;;;;1.98;0.98;;;;;;;12.32;59.33;100663.03;10368879;28;20113;-60
2024/02/16 05:36:24;;;;;;;1.75;0.90;;;;;;;12.32;59.74;100657.72;10368265;28;20026;-60
2024/02/16 05:41:25;;;;;;;1.58;1.30;;;;;;;12.31;59.44;100653.41;10368355;28;20037;-60
2024/02/16 05:46:25;;;;;;;2.33;1.07;;;;;;;12.30;58.85;100652.63;10366689;28;20488;-60
2024/02/16 05:51:26;;;;;;;1.90;1.10;;;;;;;12.32;59.19;100654.25;10355204;28;20307;-59
2024/02/16 05:56:28;;;;;;;2.00;1.07;;;;;;;12.31;59.00;100664.06;10368220;28;20224;-60
2024/02/16 06:01:29;;;;;;;2.55;1.27;;;;;;;12.30;59.73;100663.25;10368478;28;20284;-60
2024/02/16 06:06:29;;;;;;;1.88;1.33;;;;;;;12.30;59.53;100662.44;10365583;28;20544;-60
2024/02/16 06:11:30;;;;;;;1.90;1.60;;;;;;;12.30;60.00;100663.25;10393321;28;20108;-59
2024/02/16 06:16:30;;;;;;;2.70;1.33;;;;;;;12.30;59.62;100668.56;10365419;28;20359;-60
2024/02/16 06:21:31;;;;;;;2.05;1.23;;;;;;;12.29;58.92;100679.47;10365207;28;20293;-60
2024/02/16 06:26:32;;;;;;;2.17;1.40;;;;;;;12.29;59.64;100679.47;10380818;28;20018;-61
2024/02/16 06:31:32;;;;;;;1.77;1.10;;;;;;;12.29;59.62;100696.22;10420170;28;20275;-60
2024/02/16 06:36:32;;;;;;;2.45;1.30;;;;;;;12.28;59.54;100699.13;10367085;28;20609;-60
2024/02/16 06:41:33;;;;;;;2.33;1.23;;;;;;;12.28;59.66;100699.94;10367146;28;20032;-61
2024/02/16 06:46:33;;;;;;;2.20;1.73;;;;;;;12.28;59.72;100707.91;10366055;28;20276;-60
2024/02/16 06:51:33;;;;;;;2.53;1.23;;;;;;;12.28;60.14;100715.88;10363163;28;20210;-61
2024/02/16 06:56:35;;;;;;;2.33;1.33;;;;;;;12.27;59.43;100714.28;10365381;28;20968;-61
2024/02/16 07:01:36;;;;;;;2.13;1.08;;;;;;;12.28;59.90;100717.72;10374581;28;20116;-61
2024/02/16 07:06:36;;;;;;;2.15;1.13;;;;;;;12.28;58.70;100723.06;10406982;28;20021;-61
2024/02/16 07:11:37;;;;;;;1.60;1.10;;;;;;;12.28;59.55;100741.66;10385505;28;20133;-60
2024/02/16 07:16:38;;;;;;;1.83;1.00;;;;;;;12.27;59.25;100726.78;10366854;28;20504;-60
2024/02/16 07:21:38;;;;;;;2.00;1.10;;;;;;;12.27;60.09;100742.72;10366031;28;20030;-60
2024/02/16 07:26:38;;;;;;;1.88;1.27;;;;;;;12.26;59.35;100749.91;10365857;28;20022;-61
2024/02/16 07:31:39;;;;;;;1.85;1.13;;;;;;;12.27;59.49;100753.34;10382311;28;20029;-60
2024/02/16 07:36:39;;;;;;;1.45;1.10;;;;;;;12.25;59.77;100768.75;10414639;28;20033;-60
2024/02/16 07:41:39;;;;;;;1.75;1.27;;;;;;;12.26;59.41;100767.69;10415904;28;20041;-61
2024/02/16 07:46:45;;;;;;;3.17;1.40;;;;;;;12.26;59.36;100762.38;10415334;28;20083;-61
2024/02/16 07:51:46;;;;;;;2.05;1.20;;;;;;;12.25;59.90;100761.59;10416124;28;20032;-61
2024/02/16 07:56:46;;;;;;;2.05;1.20;;;;;;;12.25;59.68;100774.06;10415115;28;20029;-60
2024/02/16 08:01:47;;;;;;;2.53;1.40;;;;;;;12.25;59.76;100785.50;10415394;28;20030;-60
2024/02/16 08:06:47;;;;;;;1.63;1.10;;;;;;;12.26;59.84;100788.97;10415139;28;20037;-61
2024/02/16 08:11:47;;;;;;;1.42;0.90;;;;;;;12.26;59.99;100796.94;10388904;28;20057;-61
2024/02/16 08:16:48;;;;;;;1.65;1.02;;;;;;;12.25;59.62;100804.13;10373707;28;20032;-61
2024/02/16 08:21:49;;;;;;;1.48;1.15;;;;;;;12.25;59.09;100812.09;10373421;28;20951;-60
2024/02/16 08:26:49;;;;;;;2.23;1.10;;;;;;;12.25;59.91;100809.44;10373373;28;20022;-60
2024/02/16 08:31:50;;;;;;;1.50;1.17;;;;;;;12.25;59.57;100812.09;10398562;28;20283;-60
2024/02/16 08:36:51;;;;;;;1.88;1.23;;;;;;;12.25;60.33;100812.09;10373744;28;20720;-60
2024/02/16 08:41:51;;;;;;;2.35;1.20;;;;;;;12.25;60.33;100809.44;10371890;28;20038;-61
2024/02/16 08:46:53;;;;;;;1.95;1.38;;;;;;;12.24;59.31;100813.16;10371469;28;20030;-60
2024/02/16 08:51:53;;;;;;;2.45;1.20;;;;;;;12.24;59.23;100815.81;10370964;28;20418;-60
2024/02/16 08:56:54;;;;;;;2.23;1.13;;;;;;;12.25;60.59;100824.59;10381089;28;20022;-60
2024/02/16 09:01:54;;;;;;;1.85;1.20;;;;;;;12.25;59.35;100841.34;10399984;28;20276;-60
2024/02/16 09:06:55;;;;;;;2.05;1.10;;;;;;;12.24;60.30;100834.41;10412665;28;20117;-60
2024/02/16 09:11:55;;;;;;;2.57;1.63;;;;;;;12.24;60.45;100860.19;10400008;28;20061;-61
2024/02/16 09:16:55;;;;;;;2.45;1.08;;;;;;;12.24;59.71;100876.16;10371682;28;20860;-60
2024/02/16 09:21:58;;;;;;;1.97;1.30;;;;;;;12.23;60.75;100885.19;10370827;28;20030;-60
2024/02/16 09:27:04;;;;;;;2.25;1.23;;;;;;;12.25;59.99;100891.03;10371139;28;20617;-61
2024/02/16 09:32:05;;;;;;;2.38;1.42;;;;;;;12.25;59.78;100901.69;10369685;28;20121;-60
2024/02/16 09:37:05;;;;;;;2.63;1.40;;;;;;;12.25;59.73;100912.31;10370785;28;20496;-61
2024/02/16 09:42:06;;;;;;;4.07;1.97;;;;;;;12.24;59.83;100919.47;10370251;28;20377;-61
2024/02/16 09:47:07;;;;;;;2.33;1.47;;;;;;;12.24;59.82;100927.47;10370150;28;20280;-60
2024/02/16 09:52:11;;;;;;;2.95;1.35;;;;;;;12.24;60.42;100932.78;10368751;28;20402;-60
2024/02/16 09:57:11;;;;;;;3.03;2.10;;;;;;;12.24;60.96;100938.09;10365085;28;20476;-60
2024/02/16 10:02:11;;;;;;;1.83;1.20;;;;;;;12.23;60.54;100944.47;10381133;28;20033;-60
2024/02/16 10:07:13;;;;;;;2.70;1.67;;;;;;;12.22;60.83;100934.88;10409405;28;20441;-61
2024/02/16 10:12:18;;;;;;;2.25;1.20;;;;;;;12.22;60.40;100950.84;10395259;28;20304;-60
2024/02/16 10:17:18;;;;;;;2.72;1.60;;;;;;;12.22;60.61;100942.84;10367732;28;20426;-60
2024/02/16 10:22:18;;;;;;;2.58;1.55;;;;;;;12.24;60.96;100963.88;10368928;28;20099;-60
2024/02/16 10:27:20;;;;;;;1.83;1.20;;;;;;;12.23;60.53;100965.72;10369007;28;20026;-61
2024/02/16 10:32:20;;;;;;;3.30;1.65;;;;;;;12.24;60.97;100983.28;10369354;28;20101;-60
2024/02/16 10:37:21;;;;;;;2.25;1.50;;;;;;;12.24;60.76;100988.59;10368089;28;20080;-60
2024/02/16 10:42:23;;;;;;;1.95;1.15;;;;;;;12.25;60.93;101010.66;10368371;28;20465;-61
2024/02/16 10:47:23;;;;;;;2.88;1.95;;;;;;;12.25;61.46;101005.34;10404211;28;20053;-61
2024/02/16 10:52:25;;;;;;;2.42;1.50;;;;;;;12.25;60.74;101013.34;10407510;28;20645;-60
2024/02/16 10:57:25;;;;;;;1.98;1.63;;;;;;;12.25;60.05;101037.25;10407601;28;20025;-60
2024/02/16 11:02:27;;;;;;;2.55;1.20;;;;;;;12.24;60.83;101033.78;10406819;28;20060;-60
2024/02/16 11:07:27;;;;;;;2.30;1.40;;;;;;;12.25;60.68;101040.72;10368637;28;20080;-59
2024/02/16 11:12:34;;;;;;;2.67;1.50;;;;;;;12.25;60.06;101042.56;10378657;28;20072;-60
2024/02/16 11:17:35;;;;;;;2.80;1.55;;;;;;;12.25;60.47;101048.69;10367094;28;20500;-61
2024/02/16 11:22:37;;;;;;;4.35;2.03;;;;;;;12.25;60.80;101066.50;10366956;28;20028;-61
2024/02/16 11:27:39;;;;;;;2.75;1.65;;;;;;;12.24;61.11;101078.19;10365937;28;20096;-60
2024/02/16 11:32:43;;;;;;;2.88;1.73;;;;;;;12.25;60.71;101085.91;10366575;28;20022;-60
2024/02/16 11:37:45;;;;;;;2.80;1.40;;;;;;;12.25;61.24;101085.13;10365658;28;20034;-60
2024/02/16 11:42:46;;;;;;;3.97;2.10;;;;;;;12.25;60.93;101099.22;10378552;28;20093;-60
2024/02/16 11:47:47;;;;;;;3.42;1.80;;;;;;;12.24;61.46;101108.22;10405625;28;20037;-60
2024/02/16 11:52:47;;;;;;;2.57;1.70;;;;;;;12.25;60.19;101117.00;10407236;28;20403;-60
2024/02/16 11:57:50;;;;;;;1.42;1.30;;;;;;;12.27;60.45;101101.63;10406170;28;20279;-60
2024/02/16 12:03:00;;;;;;;2.95;1.70;;;;;;;12.26;60.67;101115.97;10405650;28;20033;-60
2024/02/16 12:08:00;;;;;;;3.55;1.92;;;;;;;12.27;61.20;101104.28;10405791;28;20382;-60
2024/02/16 12:13:01;;;;;;;2.60;1.58;;;;;;;12.26;61.61;101100.00;10384764;28;20030;-60
2024/02/16 12:18:01;;;;;;;2.92;1.70;;;;;;;12.26;60.94;101114.09;10364970;28;20030;-60
2024/02/16 12:23:12;;;;;;;2.05;1.63;;;;;;;12.25;60.88;101139.09;10372713;28;20041;-61
2024/02/16 12:28:13;;;;;;;2.20;1.40;;;;;;;12.25;60.55;101149.72;10372910;28;20064;-60
2024/02/16 12:33:14;;;;;;;3.42;2.40;;;;;;;12.25;60.36;101160.34;10399190;28;20685;-60
2024/02/16 12:38:16;;;;;;;2.72;2.03;;;;;;;12.26;60.61;101163.81;10373178;28;20028;-61
2024/02/16 12:43:18;;;;;;;1.77;1.33;;;;;;;12.26;60.80;101175.25;10372870;28;20041;-60
2024/02/16 12:48:20;;;;;;;3.00;1.70;;;;;;;12.27;60.62;101192.00;10372271;28;20037;-61
2024/02/16 12:53:20;;;;;;;3.30;1.77;;;;;;;12.27;60.74;101186.69;10372510;28;20041;-60
2024/02/16 12:58:21;;;;;;;2.45;1.60;;;;;;;12.25;60.90;101192.25;10371804;28;20025;-60
2024/02/16 13:03:21;;;;;;;2.20;1.60;;;;;;;12.27;60.67;101202.66;10370999;28;20022;-60
2024/02/16 13:08:21;;;;;;;2.67;1.40;;;;;;;12.26;60.84;101209.81;10379375;28;20292;-60
2024/02/16 13:13:22;;;;;;;1.92;1.70;;;;;;;12.26;61.48;101223.13;10374189;28;20289;-60
2024/02/16 13:18:22;;;;;;;2.00;1.30;;;;;;;12.28;60.77;101231.66;10369913;28;20300;-61
2024/02/16 13:23:22;;;;;;;3.17;1.90;;;;;;;12.29;61.49;101227.13;10371198;28;20033;-59
2024/02/16 13:28:23;;;;;;;2.20;1.37;;;;;;;12.30;61.57;101244.69;10371107;28;20637;-60
2024/02/16 13:33:23;;;;;;;3.83;1.75;;;;;;;12.29;60.95;101243.09;10370602;28;20306;-60
2024/02/16 13:38:23;;;;;;;2.10;1.48;;;;;;;12.29;60.79;101249.22;10370374;28;20077;-61
2024/02/16 13:43:24;;;;;;;2.60;1.85;;;;;;;12.29;61.05;101273.16;10371070;28;20105;-60
2024/02/16 13:48:24;;;;;;;3.28;1.85;;;;;;;12.29;62.01;101278.47;10370186;28;20029;-60
2024/02/16 13:53:25;;;;;;;2.67;1.70;;;;;;;12.30;61.96;101281.94;10368705;28;20527;-60
2024/02/16 13:58:25;;;;;;;2.00;1.35;;;;;;;12.32;61.48;101289.69;10370051;28;20276;-60
2024/02/16 14:03:26;;;;;;;3.60;2.20;;;;;;;12.29;61.10;101291.75;10402737;28;20372;-61
2024/02/16 14:08:26;;;;;;;2.42;1.50;;;;;;;12.28;61.33;101314.06;10408618;28;20651;-60
2024/02/16 14:13:27;;;;;;;3.17;1.88;;;;;;;12.29;62.05;101305.06;10385483;28;20030;-61
2024/02/16 14:18:27;;;;;;;2.67;2.00;;;;;;;12.30;62.12;101321.81;10369082;28;20029;-61
2024/02/16 14:23:27;;;;;;;2.95;2.13;;;;;;;12.32;61.05;101332.22;10369054;28;20303;-59
2024/02/16 14:28:28;;;;;;;3.33;2.33;;;;;;;12.33;62.28;101342.63;10368351;28;20033;-60
2024/02/16 14:33:28;;;;;;;3.45;2.15;;;;;;;12.31;61.38;101347.34;10395928;28;20288;-60
2024/02/16 14:38:28;;;;;;;2.85;1.83;;;;;;;12.33;62.31;101352.47;10368329;28;20025;-60
2024/02/16 14:43:32;;;;;;;1.88;1.30;;;;;;;12.32;61.48;101356.97;10379730;28;20484;-60
2024/02/16 14:48:33;;;;;;;3.83;1.98;;;;;;;12.32;61.54;101359.63;10398999;28;20041;-61
2024/02/16 14:53:33;;;;;;;3.33;1.80;;;;;;;12.32;62.04;101370.28;10408930;28;20500;-60
2024/02/16 14:58:34;;;;;;;2.63;1.48;;;;;;;12.33;62.20;101384.38;10408715;28;20100;-60
2024/02/16 15:03:35;;;;;;;1.73;1.35;;;;;;;12.34;61.79;101401.94;10407336;28;20025;-60
2024/02/16 15:08:35;;;;;;;2.45;1.60;;;;;;;12.33;60.74;101406.44;10407873;28;20057;-60
2024/02/16 15:13:37;;;;;;;2.13;1.42;;;;;;;12.33;61.80;101410.97;10408012;28;20033;-60
2024/02/16 15:18:37;;;;;;;2.25;1.27;;;;;;;12.33;61.47;101418.94;10407610;28;20064;-60
2024/02/16 15:23:38;;;;;;;2.37;1.47;;;;;;;12.33;61.73;101427.72;10407672;28;20496;-60
2024/02/16 15:28:38;;;;;;;2.10;1.40;;;;;;;12.34;61.61;101441.81;10361596;28;20312;-60
2024/02/16 15:33:38;;;;;;;2.60;1.40;;;;;;;12.34;62.06;101452.47;10367259;28;20022;-60
2024/02/16 15:38:39;;;;;;;2.55;1.90;;;;;;;12.34;61.25;101447.94;10366069;28;20272;-61
2024/02/16 15:43:39;;;;;;;1.80;1.20;;;;;;;12.33;61.16;101456.97;10408006;28;20025;-60
2024/02/16 15:48:39;;;;;;;2.00;1.50;;;;;;;12.32;61.22;101458.00;10407327;28;20279;-60
2024/02/16 15:53:40;;;;;;;2.23;1.37;;;;;;;12.32;60.88;101473.97;10409382;28;20295;-61
2024/02/16 15:58:42;;;;;;;2.42;1.17;;;;;;;12.33;60.88;101475.59;10393167;28;20280;-61
2024/02/16 16:03:43;;;;;;;1.55;1.23;;;;;;;12.34;61.01;101482.53;10397764;28;20025;-61
2024/02/16 16:08:45;;;;;;;2.40;1.10;;;;;;;12.34;61.42;101487.03;10414598;28;20100;-61
2024/02/16 16:13:45;;;;;;;2.10;1.20;;;;;;;12.32;61.07;101500.56;10373691;28;20457;-60
2024/02/16 16:18:46;;;;;;;2.30;1.38;;;;;;;12.34;60.52;101517.09;10372858;28;20033;-61
2024/02/16 16:23:46;;;;;;;2.60;2.15;;;;;;;12.33;61.57;101528.75;10373191;28;20034;-60
2024/02/16 16:28:47;;;;;;;1.98;1.27;;;;;;;12.33;61.53;101535.94;10361130;28;20095;-60
2024/02/16 16:33:48;;;;;;;2.63;1.60;;;;;;;12.33;61.88;101539.41;10372311;28;20069;-60
2024/02/16 16:38:49;;;;;;;2.15;1.70;;;;;;;12.33;60.90;101547.38;10371849;28;20080;-61
2024/02/16 16:43:49;;;;;;;2.38;1.50;;;;;;;12.32;60.78;101548.44;10372736;28;20024;-60
2024/02/16 16:48:50;;;;;;;2.60;1.30;;;;;;;12.32;61.07;101561.72;10372882;28;20022;-60
2024/02/16 16:53:50;;;;;;;2.15;1.48;;;;;;;12.33;61.25;101579.28;10371817;28;20292;-61
2024/02/16 16:58:51;;;;;;;2.22;1.45;;;;;;;12.33;61.43;101584.63;10372446;28;20037;-61
2024/02/16 17:03:51;;;;;;;1.98;1.45;;;;;;;12.32;61.13;101588.31;10371086;28;20030;-60
2024/02/16 17:08:52;;;;;;;1.77;1.27;;;;;;;12.33;61.63;101600.56;10384745;28;20080;-60
2024/02/16 17:13:52;;;;;;;2.08;1.50;;;;;;;12.33;61.23;101613.88;10384601;28;20296;-61
2024/02/16 17:18:52;;;;;;;2.33;1.40;;;;;;;12.33;61.37;101629.00;10371721;28;20088;-60
2024/02/16 17:23:53;;;;;;;2.13;1.48;;;;;;;12.33;60.65;101629.00;10400859;28;20288;-60
2024/02/16 17:28:53;;;;;;;1.73;1.08;;;;;;;12.33;60.64;101639.66;10412994;28;20029;-60
2024/02/16 17:33:53;;;;;;;2.15;1.40;;;;;;;12.32;60.44;101654.78;10396632;28;20477;-60
2024/02/16 17:38:53;;;;;;;1.60;1.10;;;;;;;12.32;60.63;101670.75;10409925;28;20018;-60
2024/02/16 17:43:54;;;;;;;2.60;1.60;;;;;;;12.34;61.35;101673.19;10407770;28;20272;-61
2024/02/16 17:48:54;;;;;;;2.20;1.30;;;;;;;12.33;61.32;101679.53;10409408;28;20284;-61
2024/02/16 17:53:55;;;;;;;1.85;1.30;;;;;;;12.32;61.13;101681.38;10408781;28;20287;-60
2024/02/16 17:58:56;;;;;;;1.95;1.42;;;;;;;12.32;61.08;101696.53;10408067;28;20582;-61
2024/02/16 18:03:57;;;;;;;2.35;1.33;;;;;;;12.32;60.93;101705.31;10408676;28;20061;-59
2024/02/16 18:08:57;;;;;;;2.13;1.33;;;;;;;12.33;60.72;101706.13;10407547;28;20501;-60
2024/02/16 18:13:57;;;;;;;2.17;1.20;;;;;;;12.32;60.29;101712.50;10380466;28;20300;-60
2024/02/16 18:18:59;;;;;;;1.87;1.30;;;;;;;12.32;60.87;101718.63;10407010;28;20276;-60
2024/02/16 18:23:59;;;;;;;3.03;1.60;;;;;;;12.33;61.05;101724.75;10407396;28;20318;-61
2024/02/16 18:28:59;;;;;;;2.28;1.52;;;;;;;12.32;60.94;101733.75;10407775;28;20545;-60
2024/02/16 18:34:00;;;;;;;2.10;1.30;;;;;;;12.32;60.65;101745.22;10393927;28;20038;-60
2024/02/16 18:39:01;;;;;;;2.97;1.50;;;;;;;12.32;60.80;101755.03;10407413;28;20283;-60
2024/02/16 18:44:02;;;;;;;2.35;1.52;;;;;;;12.33;60.67;101760.13;10406906;28;20032;-61
2024/02/16 18:49:03;;;;;;;2.25;1.42;;;;;;;12.32;60.78;101761.16;10406912;28;20416;-60
2024/02/16 18:54:05;;;;;;;2.50;1.70;;;;;;;12.33;60.21;101775.28;10395352;28;20036;-60
2024/02/16 18:59:07;;;;;;;2.03;1.30;;;;;;;12.31;60.57;101783.44;10365934;28;20135;-60
2024/02/16 19:04:08;;;;;;;2.88;1.75;;;;;;;12.32;60.75;101792.25;10378788;28;20029;-60
2024/02/16 19:09:09;;;;;;;2.58;1.58;;;;;;;12.33;60.29;101793.88;10404196;28;20501;-60
2024/02/16 19:14:09;;;;;;;2.00;1.35;;;;;;;12.32;60.72;101798.41;10365087;28;20041;-60
2024/02/16 19:19:11;;;;;;;2.53;1.47;;;;;;;12.32;60.65;101811.69;10365780;28;20022;-60
2024/02/16 19:24:11;;;;;;;2.63;1.63;;;;;;;12.32;60.55;101816.19;10365406;28;20308;-60
2024/02/16 19:29:11;;;;;;;2.77;1.93;;;;;;;12.32;60.70;101822.31;10363668;28;20100;-59
2024/02/16 19:34:12;;;;;;;2.17;1.48;;;;;;;12.32;60.22;101834.81;10364770;28;20375;-60
2024/02/16 19:39:15;;;;;;;2.83;1.95;;;;;;;12.32;60.50;101832.97;10364888;28;20025;-60
2024/02/16 19:44:16;;;;;;;2.85;1.77;;;;;;;12.32;60.04;101840.94;10364446;28;20116;-60
2024/02/16 19:49:17;;;;;;;2.72;1.75;;;;;;;12.32;61.04;101842.78;10364628;28;20022;-60
2024/02/16 19:54:17;;;;;;;3.05;1.80;;;;;;;12.32;60.89;101859.56;10389361;28;20544;-60
2024/02/16 19:59:18;;;;;;;2.50;1.60;;;;;;;12.32;60.89;101861.41;10404306;28;20025;-60
2024/02/16 20:04:18;;;;;;;2.97;1.80;;;;;;;12.32;60.76;101870.19;10405269;28;20033;-60
2024/02/16 20:09:18;;;;;;;2.47;1.70;;;;;;;12.32;60.33;101880.84;10399678;28;20288;-60
2024/02/16 20:14:19;;;;;;;2.20;1.60;;;;;;;12.32;59.92;101893.31;10363899;28;20469;-60
2024/02/16 20:19:19;;;;;;;2.83;1.47;;;;;;;12.32;59.38;101902.09;10362504;28;20520;-60
2024/02/16 20:24:19;;;;;;;2.57;2.13;;;;;;;12.32;59.88;101918.06;10364157;28;20272;-59
2024/02/16 20:29:20;;;;;;;2.72;2.30;;;;;;;12.32;60.10;101925.22;10363698;28;20684;-60
2024/02/16 20:34:21;;;;;;;2.25;1.50;;;;;;;12.32;60.40;101934.03;10362708;28;20026;-59
2024/02/16 20:39:21;;;;;;;2.22;1.60;;;;;;;12.32;60.61;101935.88;10363236;28;20053;-60
2024/02/16 20:44:22;;;;;;;2.80;1.73;;;;;;;12.32;60.50;101933.22;10370901;28;20366;-59
2024/02/16 20:49:22;;;;;;;2.70;2.28;;;;;;;12.32;60.84;101941.19;10370290;28;20026;-59
2024/02/16 20:54:26;;;;;;;2.42;1.50;;;;;;;12.32;59.44;101951.81;10370731;28;20018;-60
2024/02/16 20:59:26;;;;;;;2.75;1.85;;;;;;;12.32;59.88;101965.13;10369544;28;20030;-58
2024/02/16 21:04:34;;;;;;;2.80;1.90;;;;;;;12.32;60.65;101967.78;10370239;28;20021;-59
2024/02/16 21:09:34;;;;;;;3.30;1.60;;;;;;;12.32;59.78;101970.44;10383541;28;20629;-59
2024/02/16 21:14:34;;;;;;;3.03;2.03;;;;;;;12.30;60.37;101982.09;10368735;28;20026;-60
2024/02/16 21:19:35;;;;;;;2.92;2.00;;;;;;;12.32;60.81;101992.53;10369798;28;20208;-59
2024/02/16 21:24:35;;;;;;;2.57;1.67;;;;;;;12.32;59.87;102002.34;10369346;28;20469;-59
2024/02/16 21:29:37;;;;;;;2.17;1.60;;;;;;;12.32;60.20;102011.16;10367565;28;20280;-60
2024/02/16 21:34:37;;;;;;;2.70;1.80;;;;;;;12.31;60.47;102022.78;10393810;28;20470;-60
2024/02/16 21:39:38;;;;;;;2.40;1.77;;;;;;;12.31;59.76;102017.47;10381721;28;20032;-60
2024/02/16 21:44:40;;;;;;;2.50;1.75;;;;;;;12.31;60.54;102012.16;10408859;28;20802;-60
2024/02/16 21:49:40;;;;;;;2.28;1.42;;;;;;;12.32;59.44;102021.78;10408705;28;20028;-60
2024/02/16 21:54:41;;;;;;;2.67;1.70;;;;;;;12.30;60.05;102027.28;10407570;28;20663;-59
2024/02/16 21:59:41;;;;;;;2.45;1.30;;;;;;;12.30;60.57;102027.28;10407293;28;20106;-59
2024/02/16 22:04:41;;;;;;;2.40;1.70;;;;;;;12.30;59.92;102026.47;10407216;28;20017;-60
2024/02/16 22:09:42;;;;;;;1.98;1.38;;;;;;;12.30;60.30;102029.16;10401524;28;20297;-59
2024/02/16 22:14:42;;;;;;;4.05;2.00;;;;;;;12.31;59.99;102038.75;10367197;28;20026;-60
2024/02/16 22:19:42;;;;;;;2.97;1.77;;;;;;;12.30;59.63;102043.25;10375520;28;20322;-59
2024/02/16 22:24:42;;;;;;;2.77;1.37;;;;;;;12.30;59.54;102061.06;10394669;28;20276;-59
2024/02/16 22:29:43;;;;;;;2.45;1.38;;;;;;;12.30;59.63;102067.19;10406231;28;20329;-59
2024/02/16 22:34:43;;;;;;;1.97;1.57;;;;;;;12.30;60.26;102071.69;10368247;28;20037;-59
2024/02/16 22:39:43;;;;;;;2.20;1.80;;;;;;;12.29;60.06;102086.03;10379476;28;20692;-60
2024/02/16 22:44:44;;;;;;;2.23;1.50;;;;;;;12.29;60.30;102100.13;10393844;28;20393;-58
2024/02/16 22:49:44;;;;;;;3.10;2.00;;;;;;;12.29;60.40;102101.97;10406816;28;20290;-59
2024/02/16 22:54:45;;;;;;;1.93;1.50;;;;;;;12.29;60.50;102097.47;10406584;28;20021;-59
2024/02/16 22:59:45;;;;;;;2.17;1.30;;;;;;;12.29;59.65;102110.78;10407013;28;20283;-58